createdAt,value
2016-04-18T00:02:48.404Z,3.9
2016-04-18T00:06:00.271Z,3.8
2016-04-18T00:09:10.357Z,3.8
2016-04-18T00:12:22.037Z,3.7
2016-04-18T00:15:39.207Z,3.8
2016-04-18T00:18:46.421Z,3.7
2016-04-18T00:21:48.270Z,3.7
2016-04-18T00:25:00.305Z,3.6
2016-04-18T00:28:12.080Z,3.6
2016-04-18T00:31:23.912Z,3.6
2016-04-18T00:34:40.675Z,3.5
2016-04-18T00:37:47.643Z,3.5
2016-04-18T00:40:49.356Z,3.5
2016-04-18T00:44:01.069Z,3.5
2016-04-18T00:47:13.014Z,3.5
2016-04-18T00:50:22.633Z,3.4
2016-04-18T00:53:41.343Z,3.4
2016-04-18T00:56:48.026Z,3.4
2016-04-18T00:59:49.800Z,3.3
2016-04-18T01:03:01.682Z,3.3
2016-04-18T01:06:13.441Z,3.3
2016-04-18T01:09:25.214Z,3.2
2016-04-18T01:12:39.613Z,3.1
2016-04-18T01:15:46.308Z,3.1
2016-04-18T01:18:48.066Z,3
2016-04-18T01:21:59.703Z,3
2016-04-18T01:25:11.367Z,2.9
2016-04-18T01:28:22.750Z,2.9
2016-04-18T01:31:39.352Z,2.8
2016-04-18T01:34:45.954Z,2.7
2016-04-18T01:37:47.680Z,2.7
2016-04-18T01:40:59.316Z,2.7
2016-04-18T01:44:10.903Z,2.7
2016-04-18T01:47:22.598Z,2.6
2016-04-18T01:50:38.621Z,2.6
2016-04-18T01:53:45.083Z,2.7
2016-04-18T01:56:46.981Z,2.7
2016-04-18T01:59:58.695Z,2.7
2016-04-18T02:03:10.281Z,2.6
2016-04-18T02:06:21.711Z,2.6
2016-04-18T02:09:33.001Z,2.5
2016-04-18T02:12:44.681Z,2.5
2016-04-18T02:15:56.457Z,2.5
2016-04-18T02:19:08.043Z,2.5
2016-04-18T02:22:19.739Z,2.4
2016-04-18T02:25:31.574Z,2.4
2016-04-18T02:28:41.130Z,2.3
2016-04-18T02:31:55.094Z,2.3
2016-04-18T02:35:06.836Z,2.2
2016-04-18T02:38:18.531Z,2.2
2016-04-18T02:41:30.040Z,2.1
2016-04-18T02:44:46.438Z,2.1
2016-04-18T02:47:48.322Z,2.1
2016-04-18T02:50:59.301Z,2.1
2016-04-18T02:54:11.075Z,2.1
2016-04-18T02:57:22.645Z,2
2016-04-18T03:00:39.481Z,2
2016-04-18T03:03:46.302Z,2
2016-04-18T03:06:48.091Z,2
2016-04-18T03:10:00.024Z,2
2016-04-18T03:13:09.798Z,2
2016-04-18T03:16:21.728Z,1.9
2016-04-18T03:19:38.267Z,1.9
2016-04-18T03:22:44.916Z,1.8
2016-04-18T03:25:46.564Z,1.8
2016-04-18T03:28:58.168Z,1.8
2016-04-18T03:32:09.958Z,1.8
2016-04-18T03:35:21.451Z,1.8
2016-04-18T03:38:33.209Z,1.9
2016-04-18T03:41:44.623Z,1.8
2016-04-18T03:44:56.181Z,1.8
2016-04-18T03:48:08.064Z,1.8
2016-04-18T03:51:20.400Z,1.8
2016-04-18T03:54:32.111Z,1.8
2016-04-18T03:57:43.760Z,1.8
2016-04-18T04:00:55.708Z,1.8
2016-04-18T04:04:07.325Z,1.8
2016-04-18T04:07:18.443Z,1.8
2016-04-18T04:10:30.029Z,1.8
2016-04-18T04:13:46.896Z,1.8
2016-04-18T04:16:48.623Z,1.8
2016-04-18T04:20:00.618Z,1.9
2016-04-18T04:23:12.517Z,1.9
2016-04-18T04:26:24.463Z,1.9
2016-04-18T04:29:41.159Z,1.9
2016-04-18T04:32:47.916Z,1.9
2016-04-18T04:35:49.690Z,2
2016-04-18T04:39:01.341Z,2
2016-04-18T04:42:13.240Z,2
2016-04-18T04:45:24.967Z,2.1
2016-04-18T04:48:41.849Z,2.1
2016-04-18T04:51:43.858Z,2.2
2016-04-18T04:54:55.274Z,2.2
2016-04-18T04:58:07.282Z,2.3
2016-04-18T05:01:15.852Z,2.3
2016-04-18T05:04:27.892Z,2.5
2016-04-18T05:07:44.823Z,2.6
2016-04-18T05:10:46.705Z,2.6
2016-04-18T05:13:55.137Z,2.7
2016-04-18T05:17:06.411Z,2.8
2016-04-18T05:20:15.544Z,2.8
2016-04-18T05:23:27.474Z,2.9
2016-04-18T05:26:44.123Z,2.9
2016-04-18T05:29:46.105Z,3
2016-04-18T05:32:57.585Z,3.1
2016-04-18T05:36:09.546Z,3.2
2016-04-18T05:39:21.727Z,3.3
2016-04-18T05:42:32.468Z,3.4
2016-04-18T05:45:46.461Z,3.5
2016-04-18T05:48:48.563Z,3.8
2016-04-18T05:52:00.855Z,4.1
2016-04-18T05:55:13.395Z,4.5
2016-04-18T05:58:25.825Z,4.8
2016-04-18T06:01:42.847Z,5.1
2016-04-18T06:04:45.153Z,5.3
2016-04-18T06:07:57.132Z,6
2016-04-18T06:11:08.531Z,6.8
2016-04-18T06:14:21.665Z,7.8
2016-04-18T06:17:40.281Z,8.8
2016-04-18T06:20:43.915Z,9.8
2016-04-18T06:23:55.394Z,10.6
2016-04-18T06:27:10.606Z,11.2
2016-04-18T06:30:24.380Z,11.9
2016-04-18T06:33:42.871Z,12.8
2016-04-18T06:36:46.552Z,13.6
2016-04-18T06:39:57.172Z,14.3
2016-04-18T06:43:10.758Z,15.1
2016-04-18T06:46:24.390Z,15.8
2016-04-18T06:49:43.196Z,16.7
2016-04-18T06:52:45.282Z,17.3
2016-04-18T06:56:01.684Z,17.9
2016-04-18T06:59:15.285Z,18.5
2016-04-18T07:02:25.668Z,19.3
2016-04-18T07:05:44.598Z,19.9
2016-04-18T07:08:48.919Z,20.5
2016-04-18T07:12:03.195Z,21.2
2016-04-18T07:15:17.376Z,21.8
2016-04-18T07:18:31.961Z,22.6
2016-04-18T07:21:50.101Z,23.3
2016-04-18T07:24:59.987Z,24
2016-04-18T07:28:14.339Z,24.6
2016-04-18T07:31:27.972Z,24.8
2016-04-18T07:34:47.136Z,25.6
2016-04-18T07:37:51.253Z,25.7
2016-04-18T07:41:04.842Z,24.5
2016-04-18T07:44:16.553Z,24.7
2016-04-18T07:47:32.842Z,25.4
2016-04-18T07:50:45.758Z,23.6
2016-04-18T07:53:59.752Z,24.7
2016-04-18T07:57:13.307Z,24.2
2016-04-18T08:00:27.237Z,24.3
2016-04-18T08:03:45.777Z,22.7
2016-04-18T08:06:49.346Z,22.2
2016-04-18T08:10:02.967Z,21.8
2016-04-18T08:13:15.772Z,19.3
2016-04-18T08:16:29.264Z,18.8
2016-04-18T08:19:47.069Z,17.1
2016-04-18T08:22:51.453Z,19.7
2016-04-18T08:26:05.697Z,22
2016-04-18T08:29:19.752Z,23
2016-04-18T08:32:33.089Z,22.2
2016-04-18T08:35:47.346Z,24
2016-04-18T08:39:00.718Z,21.6
2016-04-18T08:42:12.428Z,22
2016-04-18T08:45:28.562Z,23.1
2016-04-18T08:48:47.491Z,23.6
2016-04-18T08:51:51.453Z,22.6
2016-04-18T08:55:04.604Z,19.6
2016-04-18T08:58:17.393Z,17.9
2016-04-18T09:01:34.542Z,17
2016-04-18T09:04:48.456Z,16.1
2016-04-18T09:07:51.668Z,15.3
2016-04-18T09:11:03.006Z,14.9
2016-04-18T09:14:16.468Z,16.4
2016-04-18T09:17:30.147Z,17.4
2016-04-18T09:20:43.890Z,18.7
2016-04-18T09:23:57.460Z,17.9
2016-04-18T09:27:10.392Z,16.9
2016-04-18T09:30:24.510Z,20.1
2016-04-18T09:33:42.927Z,21.1
2016-04-18T09:36:46.419Z,19.3
2016-04-18T09:39:59.166Z,17.3
2016-04-18T09:43:11.932Z,15.9
2016-04-18T09:46:24.286Z,16.2
2016-04-18T09:49:42.169Z,17.3
2016-04-18T09:52:44.396Z,19.7
2016-04-18T09:55:59.154Z,18.1
2016-04-18T09:59:12.181Z,17.9
2016-04-18T10:02:23.204Z,17.1
2016-04-18T10:05:41.150Z,16.7
2016-04-18T10:08:44.189Z,16
2016-04-18T10:11:54.884Z,14.9
2016-04-18T10:15:09.352Z,14
2016-04-18T10:18:21.953Z,13.2
2016-04-18T10:21:39.336Z,12.6
2016-04-18T10:24:47.204Z,12.1
2016-04-18T10:27:49.977Z,12
2016-04-18T10:31:02.598Z,12.3
2016-04-18T10:34:15.403Z,12.5
2016-04-18T10:37:28.145Z,12.6
2016-04-18T10:40:45.857Z,12.6
2016-04-18T10:43:48.848Z,12.7
2016-04-18T10:47:01.656Z,12.4
2016-04-18T10:50:12.072Z,12.2
2016-04-18T10:53:22.547Z,12.1
2016-04-18T10:59:47.611Z,11.9
2016-04-18T11:02:50.368Z,12.1
2016-04-18T11:06:03.114Z,12.1
2016-04-18T11:09:15.934Z,12.2
2016-04-18T11:12:26.520Z,12.4
2016-04-18T11:18:47.005Z,12.5
2016-04-18T11:21:59.654Z,12.6
2016-04-18T11:25:11.743Z,12.5
2016-04-18T11:28:22.127Z,12.5
2016-04-18T11:31:39.712Z,12.2
2016-04-18T11:34:47.580Z,11.9
2016-04-18T11:37:50.462Z,11.8
2016-04-18T11:40:59.893Z,12.1
2016-04-18T11:44:12.512Z,12.2
2016-04-18T11:47:25.067Z,12.2
2016-04-18T11:50:42.497Z,12
2016-04-18T11:53:45.491Z,12
2016-04-18T11:56:58.014Z,11.9
2016-04-18T12:00:10.368Z,11.8
2016-04-18T12:03:22.720Z,11.7
2016-04-18T12:06:40.150Z,11.6
2016-04-18T12:09:48.018Z,11.5
2016-04-18T12:12:50.823Z,11.5
2016-04-18T12:16:03.392Z,11.3
2016-04-18T12:19:16.075Z,11.4
2016-04-18T12:22:28.755Z,11.6
2016-04-18T12:25:46.388Z,11.7
2016-04-18T12:28:49.194Z,11.6
2016-04-18T12:32:01.593Z,11.5
2016-04-18T12:35:14.135Z,11.4
2016-04-18T12:38:26.362Z,11.3
2016-04-18T12:41:43.916Z,11.2
2016-04-18T12:44:46.534Z,11.2
2016-04-18T12:47:58.823Z,11.3
2016-04-18T12:51:09.178Z,11.3
2016-04-18T12:54:21.232Z,11.3
2016-04-18T12:57:33.474Z,11.3
2016-04-18T13:00:45.154Z,11.4
2016-04-18T13:03:55.319Z,11.3
2016-04-18T13:07:10.018Z,11.3
2016-04-18T13:10:22.276Z,11.3
2016-04-18T13:13:31.831Z,11.3
2016-04-18T13:16:44.151Z,11.3
2016-04-18T13:19:56.581Z,11.2
2016-04-18T13:23:09.122Z,11.2
2016-04-18T13:26:21.428Z,11.4
2016-04-18T13:29:33.717Z,11.4
2016-04-18T13:32:45.865Z,11.4
2016-04-18T13:35:58.499Z,11.2
2016-04-18T13:39:10.979Z,11.2
2016-04-18T13:42:23.298Z,11.2
2016-04-18T13:45:40.417Z,11.2
2016-04-18T13:48:48.050Z,11.2
2016-04-18T13:51:50.808Z,11.1
2016-04-18T13:55:03.144Z,11.2
2016-04-18T13:58:15.702Z,11
2016-04-18T14:01:28.521Z,11
2016-04-18T14:04:46.108Z,11
2016-04-18T14:07:48.788Z,11
2016-04-18T14:11:01.405Z,11.1
2016-04-18T14:14:14.026Z,11.2
2016-04-18T14:17:26.658Z,11.3
2016-04-18T14:20:44.228Z,11.2
2016-04-18T14:23:46.815Z,11
2016-04-18T14:26:59.480Z,11.1
2016-04-18T14:30:12.115Z,11.2
2016-04-18T14:33:24.608Z,11.3
2016-04-18T14:36:42.179Z,11.3
2016-04-18T14:39:45.015Z,11.4
2016-04-18T14:42:57.570Z,11.3
2016-04-18T14:46:10.346Z,11.2
2016-04-18T14:49:23.167Z,11.3
2016-04-18T14:52:40.706Z,11
2016-04-18T14:55:48.651Z,10.8
2016-04-18T14:58:49.034Z,10.7
2016-04-18T15:02:03.417Z,10.7
2016-04-18T15:05:15.366Z,10.7
2016-04-18T15:08:24.093Z,10.7
2016-04-18T15:11:43.444Z,10.7
2016-04-18T15:14:46.281Z,10.8
2016-04-18T15:17:59.039Z,10.8
2016-04-18T15:21:11.737Z,11
2016-04-18T15:24:24.465Z,11.1
2016-04-18T15:27:41.957Z,11.1
2016-04-18T15:30:44.668Z,11
2016-04-18T15:33:57.302Z,10.8
2016-04-18T15:37:09.998Z,10.7
2016-04-18T15:40:20.696Z,10.7
2016-04-18T15:43:33.329Z,10.6
2016-04-18T15:46:47.260Z,10.5
2016-04-18T15:49:50.049Z,10.5
2016-04-18T15:53:02.525Z,10.6
2016-04-18T15:56:15.053Z,10.6
2016-04-18T15:59:27.498Z,10.6
2016-04-18T16:02:43.147Z,10.5
2016-04-18T16:05:45.936Z,10.5
2016-04-18T16:08:58.445Z,10.6
2016-04-18T16:12:10.954Z,10.7
2016-04-18T16:15:22.263Z,10.7
2016-04-18T16:18:40.068Z,10.7
2016-04-18T16:21:47.559Z,10.7
2016-04-18T16:24:50.287Z,10.6
2016-04-18T16:28:02.170Z,10.6
2016-04-18T16:31:14.336Z,10.6
2016-04-18T16:34:26.672Z,10.6
2016-04-18T16:37:44.134Z,10.5
2016-04-18T16:40:50.861Z,10.4
2016-04-18T16:43:58.588Z,10.4
2016-04-18T16:47:09.954Z,10.4
2016-04-18T16:50:22.237Z,10.5
2016-04-18T16:53:39.589Z,10.4
2016-04-18T16:56:47.346Z,10.4
2016-04-18T16:59:50.104Z,10.3
2016-04-18T17:03:02.659Z,10.3
2016-04-18T17:06:15.107Z,10.2
2016-04-18T17:09:27.944Z,10.2
2016-04-18T17:12:45.795Z,10.2
2016-04-18T17:15:48.538Z,10.1
2016-04-18T17:19:01.201Z,10
2016-04-18T17:22:13.713Z,9.9
2016-04-18T17:25:26.111Z,9.8
2016-04-18T17:28:43.526Z,9.6
2016-04-18T17:31:46.081Z,9.6
2016-04-18T17:34:58.338Z,9.6
2016-04-18T17:38:10.846Z,9.6
2016-04-18T17:41:23.342Z,9.5
2016-04-18T17:44:40.679Z,9.5
2016-04-18T17:47:48.296Z,9.5
2016-04-18T17:50:51.085Z,9.5
2016-04-18T17:54:03.655Z,9.4
2016-04-18T17:57:13.508Z,9.3
2016-04-18T18:00:24.253Z,9.3
2016-04-18T18:03:34.182Z,9.3
2016-04-18T18:06:44.597Z,9.3
2016-04-18T18:09:59.511Z,9.3
2016-04-18T18:13:10.207Z,9.2
2016-04-18T18:16:24.561Z,9.2
2016-04-18T18:19:41.662Z,9.1
2016-04-18T18:22:49.748Z,9.1
2016-04-18T18:25:52.023Z,9.1
2016-04-18T18:29:04.718Z,9
2016-04-18T18:32:17.475Z,9
2016-04-18T18:35:29.937Z,9
2016-04-18T18:38:47.584Z,8.9
2016-04-18T18:41:50.374Z,8.9
2016-04-18T18:45:03.012Z,8.9
2016-04-18T18:48:15.433Z,8.9
2016-04-18T18:51:28.056Z,8.9
2016-04-18T18:54:45.612Z,8.9
2016-04-18T18:57:48.387Z,8.9
2016-04-18T19:01:00.910Z,8.9
2016-04-18T19:04:11.043Z,9
2016-04-18T19:07:21.335Z,9
2016-04-18T19:10:41.031Z,9
2016-04-18T19:13:48.664Z,9
2016-04-18T19:16:51.125Z,8.9
